sensor_id;sensor_type;location;lat;lon;timestamp;P1;durP1;ratioP1;P2;durP2;ratioP2
20906;SDS011;10613;50.966;5.814;2023-07-20T00:03:12;5.50;;;3.00;;
20906;SDS011;10613;50.966;5.814;2023-07-20T00:07:25;6.00;;;5.00;;
20906;SDS011;10613;50.966;5.814;2023-07-20T00:11:35;6.75;;;6.00;;
20906;SDS011;10613;50.966;5.814;2023-07-20T00:15:41;6.75;;;6.00;;
20906;SDS011;10613;50.966;5.814;2023-07-20T00:19:48;5.50;;;5.50;;
20906;SDS011;10613;50.966;5.814;2023-07-20T00:23:55;8.00;;;8.00;;
20906;SDS011;10613;50.966;5.814;2023-07-20T00:28:02;5.50;;;5.00;;
20906;SDS011;10613;50.966;5.814;2023-07-20T00:32:09;7.00;;;7.00;;
20906;SDS011;10613;50.966;5.814;2023-07-20T00:36:16;6.00;;;5.00;;
20906;SDS011;10613;50.966;5.814;2023-07-20T00:40:23;5.75;;;5.75;;
20906;SDS011;10613;50.966;5.814;2023-07-20T00:44:30;6.00;;;6.00;;
20906;SDS011;10613;50.966;5.814;2023-07-20T00:48:37;6.50;;;6.50;;
20906;SDS011;10613;50.966;5.814;2023-07-20T00:52:44;5.25;;;5.25;;
20906;SDS011;10613;50.966;5.814;2023-07-20T00:56:53;6.00;;;6.00;;
20906;SDS011;10613;50.966;5.814;2023-07-20T01:00:59;7.00;;;7.00;;
20906;SDS011;10613;50.966;5.814;2023-07-20T01:05:06;5.50;;;5.50;;
20906;SDS011;10613;50.966;5.814;2023-07-20T01:13:50;6.00;;;6.00;;
20906;SDS011;10613;50.966;5.814;2023-07-20T01:17:57;5.50;;;5.50;;
20906;SDS011;10613;50.966;5.814;2023-07-20T01:34:52;5.50;;;4.00;;
20906;SDS011;10613;50.966;5.814;2023-07-20T01:38:59;6.25;;;6.25;;
20906;SDS011;10613;50.966;5.814;2023-07-20T01:43:06;6.00;;;6.00;;
20906;SDS011;10613;50.966;5.814;2023-07-20T01:47:13;5.75;;;5.75;;
20906;SDS011;10613;50.966;5.814;2023-07-20T01:51:20;5.00;;;5.00;;
20906;SDS011;10613;50.966;5.814;2023-07-20T01:55:27;6.50;;;6.00;;
20906;SDS011;10613;50.966;5.814;2023-07-20T01:59:34;6.00;;;6.00;;
20906;SDS011;10613;50.966;5.814;2023-07-20T02:03:42;5.75;;;5.75;;
20906;SDS011;10613;50.966;5.814;2023-07-20T02:07:48;6.00;;;6.00;;
20906;SDS011;10613;50.966;5.814;2023-07-20T02:11:56;6.25;;;4.75;;
20906;SDS011;10613;50.966;5.814;2023-07-20T02:16:02;6.00;;;6.00;;
20906;SDS011;10613;50.966;5.814;2023-07-20T02:20:10;6.00;;;6.00;;
20906;SDS011;10613;50.966;5.814;2023-07-20T02:24:16;6.00;;;6.00;;
20906;SDS011;10613;50.966;5.814;2023-07-20T02:28:23;6.00;;;5.00;;
20906;SDS011;10613;50.966;5.814;2023-07-20T02:32:31;6.75;;;6.75;;
20906;SDS011;10613;50.966;5.814;2023-07-20T02:36:38;5.75;;;5.75;;
20906;SDS011;10613;50.966;5.814;2023-07-20T02:40:45;6.00;;;5.75;;
20906;SDS011;10613;50.966;5.814;2023-07-20T02:44:52;5.00;;;5.00;;
20906;SDS011;10613;50.966;5.814;2023-07-20T02:48:59;5.50;;;5.50;;
20906;SDS011;10613;50.966;5.814;2023-07-20T02:53:07;5.00;;;5.00;;
20906;SDS011;10613;50.966;5.814;2023-07-20T02:57:14;7.25;;;6.75;;
20906;SDS011;10613;50.966;5.814;2023-07-20T03:01:21;6.00;;;6.00;;
20906;SDS011;10613;50.966;5.814;2023-07-20T03:05:27;10.00;;;6.75;;
20906;SDS011;10613;50.966;5.814;2023-07-20T03:09:34;6.75;;;6.00;;
20906;SDS011;10613;50.966;5.814;2023-07-20T03:13:42;5.25;;;5.25;;
20906;SDS011;10613;50.966;5.814;2023-07-20T03:17:49;6.25;;;6.25;;
20906;SDS011;10613;50.966;5.814;2023-07-20T03:21:57;7.50;;;6.25;;
20906;SDS011;10613;50.966;5.814;2023-07-20T03:26:10;5.00;;;5.00;;
20906;SDS011;10613;50.966;5.814;2023-07-20T03:30:25;6.00;;;5.50;;
20906;SDS011;10613;50.966;5.814;2023-07-20T03:34:32;6.50;;;6.25;;
20906;SDS011;10613;50.966;5.814;2023-07-20T03:38:39;5.00;;;5.00;;
20906;SDS011;10613;50.966;5.814;2023-07-20T03:42:46;4.50;;;4.50;;
20906;SDS011;10613;50.966;5.814;2023-07-20T03:46:53;3.00;;;3.00;;
20906;SDS011;10613;50.966;5.814;2023-07-20T03:51:00;5.75;;;5.50;;
20906;SDS011;10613;50.966;5.814;2023-07-20T03:55:07;8.00;;;7.75;;
20906;SDS011;10613;50.966;5.814;2023-07-20T03:59:14;9.25;;;6.50;;
20906;SDS011;10613;50.966;5.814;2023-07-20T04:03:21;6.75;;;5.75;;
20906;SDS011;10613;50.966;5.814;2023-07-20T04:07:29;5.50;;;5.50;;
20906;SDS011;10613;50.966;5.814;2023-07-20T04:11:36;6.00;;;6.00;;
20906;SDS011;10613;50.966;5.814;2023-07-20T04:15:43;9.50;;;8.00;;
20906;SDS011;10613;50.966;5.814;2023-07-20T04:19:50;5.00;;;5.00;;
20906;SDS011;10613;50.966;5.814;2023-07-20T04:23:57;7.00;;;7.00;;
20906;SDS011;10613;50.966;5.814;2023-07-20T04:28:04;7.00;;;6.25;;
20906;SDS011;10613;50.966;5.814;2023-07-20T04:32:12;6.75;;;6.75;;
20906;SDS011;10613;50.966;5.814;2023-07-20T04:36:19;5.25;;;5.00;;
20906;SDS011;10613;50.966;5.814;2023-07-20T04:40:27;6.50;;;6.00;;
20906;SDS011;10613;50.966;5.814;2023-07-20T04:44:35;6.50;;;6.00;;
20906;SDS011;10613;50.966;5.814;2023-07-20T04:48:43;7.00;;;7.00;;
20906;SDS011;10613;50.966;5.814;2023-07-20T04:52:50;4.00;;;3.50;;
20906;SDS011;10613;50.966;5.814;2023-07-20T04:56:58;9.75;;;7.25;;
20906;SDS011;10613;50.966;5.814;2023-07-20T05:01:05;8.25;;;8.00;;
20906;SDS011;10613;50.966;5.814;2023-07-20T05:05:13;5.75;;;5.75;;
20906;SDS011;10613;50.966;5.814;2023-07-20T05:09:20;7.00;;;7.00;;
20906;SDS011;10613;50.966;5.814;2023-07-20T05:13:27;7.00;;;7.00;;
20906;SDS011;10613;50.966;5.814;2023-07-20T05:17:34;7.00;;;6.75;;
20906;SDS011;10613;50.966;5.814;2023-07-20T05:21:41;7.00;;;6.00;;
20906;SDS011;10613;50.966;5.814;2023-07-20T05:25:58;6.50;;;6.50;;
20906;SDS011;10613;50.966;5.814;2023-07-20T05:30:06;6.50;;;6.00;;
20906;SDS011;10613;50.966;5.814;2023-07-20T05:34:14;5.00;;;5.00;;
20906;SDS011;10613;50.966;5.814;2023-07-20T05:38:21;6.50;;;5.00;;
20906;SDS011;10613;50.966;5.814;2023-07-20T05:42:28;8.75;;;8.75;;
20906;SDS011;10613;50.966;5.814;2023-07-20T05:46:35;10.00;;;10.00;;
20906;SDS011;10613;50.966;5.814;2023-07-20T05:50:42;10.75;;;8.50;;
20906;SDS011;10613;50.966;5.814;2023-07-20T05:54:50;9.75;;;7.50;;
20906;SDS011;10613;50.966;5.814;2023-07-20T05:58:57;6.00;;;6.00;;
20906;SDS011;10613;50.966;5.814;2023-07-20T06:03:04;9.25;;;8.00;;
20906;SDS011;10613;50.966;5.814;2023-07-20T06:07:11;8.75;;;8.75;;
20906;SDS011;10613;50.966;5.814;2023-07-20T06:11:18;9.50;;;7.75;;
20906;SDS011;10613;50.966;5.814;2023-07-20T06:15:25;8.50;;;7.75;;
20906;SDS011;10613;50.966;5.814;2023-07-20T06:19:33;9.50;;;9.50;;
20906;SDS011;10613;50.966;5.814;2023-07-20T06:23:40;10.00;;;10.00;;
20906;SDS011;10613;50.966;5.814;2023-07-20T06:27:48;7.25;;;7.25;;
20906;SDS011;10613;50.966;5.814;2023-07-20T06:31:55;10.00;;;7.50;;
20906;SDS011;10613;50.966;5.814;2023-07-20T06:36:02;8.50;;;7.00;;
20906;SDS011;10613;50.966;5.814;2023-07-20T06:40:09;12.75;;;11.25;;
20906;SDS011;10613;50.966;5.814;2023-07-20T06:44:16;7.25;;;7.00;;
20906;SDS011;10613;50.966;5.814;2023-07-20T06:48:23;9.25;;;8.50;;
20906;SDS011;10613;50.966;5.814;2023-07-20T06:52:30;9.00;;;9.00;;
20906;SDS011;10613;50.966;5.814;2023-07-20T06:56:37;10.25;;;8.50;;
20906;SDS011;10613;50.966;5.814;2023-07-20T07:00:44;7.75;;;7.75;;
20906;SDS011;10613;50.966;5.814;2023-07-20T07:04:51;7.75;;;7.75;;
20906;SDS011;10613;50.966;5.814;2023-07-20T07:08:58;6.75;;;6.75;;
20906;SDS011;10613;50.966;5.814;2023-07-20T07:13:05;6.00;;;5.75;;
20906;SDS011;10613;50.966;5.814;2023-07-20T07:17:12;8.50;;;7.75;;
20906;SDS011;10613;50.966;5.814;2023-07-20T07:21:19;8.00;;;7.00;;
20906;SDS011;10613;50.966;5.814;2023-07-20T07:25:26;7.00;;;7.00;;
20906;SDS011;10613;50.966;5.814;2023-07-20T07:29:33;7.50;;;7.50;;
20906;SDS011;10613;50.966;5.814;2023-07-20T07:33:40;8.00;;;7.00;;
20906;SDS011;10613;50.966;5.814;2023-07-20T07:37:47;8.50;;;8.00;;
20906;SDS011;10613;50.966;5.814;2023-07-20T07:41:54;5.00;;;5.00;;
20906;SDS011;10613;50.966;5.814;2023-07-20T07:46:01;8.50;;;8.50;;
20906;SDS011;10613;50.966;5.814;2023-07-20T07:50:08;8.25;;;7.75;;
20906;SDS011;10613;50.966;5.814;2023-07-20T07:54:16;8.00;;;7.00;;
20906;SDS011;10613;50.966;5.814;2023-07-20T07:58:23;9.50;;;8.25;;
20906;SDS011;10613;50.966;5.814;2023-07-20T08:02:30;7.00;;;7.00;;
20906;SDS011;10613;50.966;5.814;2023-07-20T08:06:37;6.75;;;6.75;;
20906;SDS011;10613;50.966;5.814;2023-07-20T08:10:44;7.50;;;7.00;;
20906;SDS011;10613;50.966;5.814;2023-07-20T08:14:51;7.50;;;7.50;;
20906;SDS011;10613;50.966;5.814;2023-07-20T08:18:58;7.25;;;7.25;;
20906;SDS011;10613;50.966;5.814;2023-07-20T08:23:06;5.50;;;5.50;;
20906;SDS011;10613;50.966;5.814;2023-07-20T08:27:13;6.25;;;5.75;;
20906;SDS011;10613;50.966;5.814;2023-07-20T08:31:20;6.50;;;6.50;;
20906;SDS011;10613;50.966;5.814;2023-07-20T08:35:27;6.75;;;6.75;;
20906;SDS011;10613;50.966;5.814;2023-07-20T08:39:34;6.00;;;6.00;;
20906;SDS011;10613;50.966;5.814;2023-07-20T08:43:41;6.00;;;6.00;;
20906;SDS011;10613;50.966;5.814;2023-07-20T08:47:49;6.00;;;6.00;;
20906;SDS011;10613;50.966;5.814;2023-07-20T08:52:03;5.75;;;5.75;;
20906;SDS011;10613;50.966;5.814;2023-07-20T08:56:10;8.00;;;8.00;;
20906;SDS011;10613;50.966;5.814;2023-07-20T09:00:19;4.50;;;4.50;;
20906;SDS011;10613;50.966;5.814;2023-07-20T09:04:26;8.25;;;7.75;;
20906;SDS011;10613;50.966;5.814;2023-07-20T09:08:33;7.25;;;7.25;;
20906;SDS011;10613;50.966;5.814;2023-07-20T09:12:43;4.00;;;4.00;;
20906;SDS011;10613;50.966;5.814;2023-07-20T09:16:52;4.50;;;4.50;;
20906;SDS011;10613;50.966;5.814;2023-07-20T09:21:06;6.00;;;6.00;;
20906;SDS011;10613;50.966;5.814;2023-07-20T09:25:14;4.00;;;4.00;;
20906;SDS011;10613;50.966;5.814;2023-07-20T09:29:21;7.25;;;7.25;;
20906;SDS011;10613;50.966;5.814;2023-07-20T09:33:28;8.00;;;8.00;;
20906;SDS011;10613;50.966;5.814;2023-07-20T09:37:35;7.50;;;7.00;;
20906;SDS011;10613;50.966;5.814;2023-07-20T09:41:42;6.50;;;6.50;;
20906;SDS011;10613;50.966;5.814;2023-07-20T09:45:49;8.75;;;8.00;;
20906;SDS011;10613;50.966;5.814;2023-07-20T09:49:59;8.50;;;7.50;;
20906;SDS011;10613;50.966;5.814;2023-07-20T09:54:06;7.00;;;6.00;;
20906;SDS011;10613;50.966;5.814;2023-07-20T09:58:13;10.50;;;7.75;;
20906;SDS011;10613;50.966;5.814;2023-07-20T10:02:23;10.00;;;8.00;;
20906;SDS011;10613;50.966;5.814;2023-07-20T10:06:32;8.25;;;8.25;;
20906;SDS011;10613;50.966;5.814;2023-07-20T10:10:40;7.00;;;7.00;;
20906;SDS011;10613;50.966;5.814;2023-07-20T10:15:10;8.75;;;8.00;;
20906;SDS011;10613;50.966;5.814;2023-07-20T10:19:17;10.25;;;9.25;;
20906;SDS011;10613;50.966;5.814;2023-07-20T10:23:31;12.00;;;9.25;;
20906;SDS011;10613;50.966;5.814;2023-07-20T10:27:39;12.00;;;9.25;;
20906;SDS011;10613;50.966;5.814;2023-07-20T10:31:46;8.50;;;8.50;;
20906;SDS011;10613;50.966;5.814;2023-07-20T10:35:57;8.75;;;7.00;;
20906;SDS011;10613;50.966;5.814;2023-07-20T10:44:30;7.50;;;7.50;;
20906;SDS011;10613;50.966;5.814;2023-07-20T10:48:39;8.50;;;7.50;;
20906;SDS011;10613;50.966;5.814;2023-07-20T10:53:04;7.25;;;7.25;;
20906;SDS011;10613;50.966;5.814;2023-07-20T10:57:23;8.00;;;6.75;;
20906;SDS011;10613;50.966;5.814;2023-07-20T11:01:30;6.00;;;6.00;;
20906;SDS011;10613;50.966;5.814;2023-07-20T11:05:38;5.00;;;5.00;;
20906;SDS011;10613;50.966;5.814;2023-07-20T11:09:45;4.00;;;4.00;;
20906;SDS011;10613;50.966;5.814;2023-07-20T11:14:14;4.00;;;4.00;;
20906;SDS011;10613;50.966;5.814;2023-07-20T11:18:26;7.00;;;6.50;;
20906;SDS011;10613;50.966;5.814;2023-07-20T11:22:33;7.00;;;6.75;;
20906;SDS011;10613;50.966;5.814;2023-07-20T11:26:47;6.50;;;4.75;;
20906;SDS011;10613;50.966;5.814;2023-07-20T11:30:54;7.25;;;7.25;;
20906;SDS011;10613;50.966;5.814;2023-07-20T11:35:01;2.75;;;2.75;;
20906;SDS011;10613;50.966;5.814;2023-07-20T11:39:09;5.00;;;5.00;;
20906;SDS011;10613;50.966;5.814;2023-07-20T11:43:16;4.25;;;4.00;;
20906;SDS011;10613;50.966;5.814;2023-07-20T11:47:24;3.25;;;3.25;;
20906;SDS011;10613;50.966;5.814;2023-07-20T11:51:35;3.00;;;3.00;;
20906;SDS011;10613;50.966;5.814;2023-07-20T11:55:43;5.25;;;5.25;;
20906;SDS011;10613;50.966;5.814;2023-07-20T11:59:57;9.25;;;9.25;;
20906;SDS011;10613;50.966;5.814;2023-07-20T12:04:05;7.00;;;7.00;;
20906;SDS011;10613;50.966;5.814;2023-07-20T12:08:13;5.75;;;5.75;;
20906;SDS011;10613;50.966;5.814;2023-07-20T12:12:20;4.75;;;4.75;;
20906;SDS011;10613;50.966;5.814;2023-07-20T12:16:28;10.25;;;10.25;;
20906;SDS011;10613;50.966;5.814;2023-07-20T12:20:35;7.00;;;6.50;;
20906;SDS011;10613;50.966;5.814;2023-07-20T12:24:43;8.00;;;8.00;;
20906;SDS011;10613;50.966;5.814;2023-07-20T12:28:50;8.00;;;8.00;;
20906;SDS011;10613;50.966;5.814;2023-07-20T12:32:57;7.25;;;6.50;;
20906;SDS011;10613;50.966;5.814;2023-07-20T12:37:04;8.00;;;6.50;;
20906;SDS011;10613;50.966;5.814;2023-07-20T12:41:11;4.00;;;4.00;;
20906;SDS011;10613;50.966;5.814;2023-07-20T12:45:21;7.50;;;5.50;;
20906;SDS011;10613;50.966;5.814;2023-07-20T12:49:28;4.50;;;4.00;;
20906;SDS011;10613;50.966;5.814;2023-07-20T12:53:35;3.00;;;3.00;;
20906;SDS011;10613;50.966;5.814;2023-07-20T12:57:42;4.00;;;4.00;;
20906;SDS011;10613;50.966;5.814;2023-07-20T13:01:49;4.00;;;4.00;;
20906;SDS011;10613;50.966;5.814;2023-07-20T13:05:56;4.25;;;4.25;;
20906;SDS011;10613;50.966;5.814;2023-07-20T13:10:04;4.75;;;4.75;;
20906;SDS011;10613;50.966;5.814;2023-07-20T13:14:11;3.50;;;3.00;;
20906;SDS011;10613;50.966;5.814;2023-07-20T13:18:18;5.00;;;3.50;;
20906;SDS011;10613;50.966;5.814;2023-07-20T13:22:25;4.00;;;4.00;;
20906;SDS011;10613;50.966;5.814;2023-07-20T13:26:32;3.25;;;3.25;;
20906;SDS011;10613;50.966;5.814;2023-07-20T13:30:39;4.00;;;4.00;;
20906;SDS011;10613;50.966;5.814;2023-07-20T13:34:46;5.00;;;5.00;;
20906;SDS011;10613;50.966;5.814;2023-07-20T13:38:53;4.00;;;4.00;;
20906;SDS011;10613;50.966;5.814;2023-07-20T13:43:00;3.00;;;3.00;;
20906;SDS011;10613;50.966;5.814;2023-07-20T13:47:07;4.00;;;3.00;;
20906;SDS011;10613;50.966;5.814;2023-07-20T13:51:14;5.00;;;5.00;;
20906;SDS011;10613;50.966;5.814;2023-07-20T13:55:21;3.25;;;3.25;;
20906;SDS011;10613;50.966;5.814;2023-07-20T13:59:28;4.00;;;4.00;;
20906;SDS011;10613;50.966;5.814;2023-07-20T14:03:35;3.50;;;3.25;;
20906;SDS011;10613;50.966;5.814;2023-07-20T14:07:42;4.00;;;4.00;;
20906;SDS011;10613;50.966;5.814;2023-07-20T14:11:49;4.00;;;4.00;;
20906;SDS011;10613;50.966;5.814;2023-07-20T14:15:56;2.50;;;2.50;;
20906;SDS011;10613;50.966;5.814;2023-07-20T14:20:03;3.00;;;3.00;;
20906;SDS011;10613;50.966;5.814;2023-07-20T14:24:14;4.00;;;4.00;;
20906;SDS011;10613;50.966;5.814;2023-07-20T14:28:21;4.25;;;4.25;;
20906;SDS011;10613;50.966;5.814;2023-07-20T14:32:28;3.00;;;3.00;;
20906;SDS011;10613;50.966;5.814;2023-07-20T14:36:35;4.00;;;4.00;;
20906;SDS011;10613;50.966;5.814;2023-07-20T14:40:42;5.75;;;4.00;;
20906;SDS011;10613;50.966;5.814;2023-07-20T14:44:56;5.25;;;5.25;;
20906;SDS011;10613;50.966;5.814;2023-07-20T14:49:03;4.50;;;4.50;;
20906;SDS011;10613;50.966;5.814;2023-07-20T14:53:11;4.00;;;4.00;;
20906;SDS011;10613;50.966;5.814;2023-07-20T14:57:17;4.00;;;3.00;;
20906;SDS011;10613;50.966;5.814;2023-07-20T15:01:25;4.00;;;4.00;;
20906;SDS011;10613;50.966;5.814;2023-07-20T15:05:32;3.00;;;3.00;;
20906;SDS011;10613;50.966;5.814;2023-07-20T15:09:46;3.75;;;3.75;;
20906;SDS011;10613;50.966;5.814;2023-07-20T15:13:53;3.00;;;3.00;;
20906;SDS011;10613;50.966;5.814;2023-07-20T15:18:00;4.25;;;4.00;;
20906;SDS011;10613;50.966;5.814;2023-07-20T15:22:07;5.00;;;5.00;;
20906;SDS011;10613;50.966;5.814;2023-07-20T15:26:14;10.00;;;10.00;;
20906;SDS011;10613;50.966;5.814;2023-07-20T15:30:21;7.75;;;7.75;;
20906;SDS011;10613;50.966;5.814;2023-07-20T15:34:28;9.00;;;9.00;;
20906;SDS011;10613;50.966;5.814;2023-07-20T15:38:35;5.00;;;5.00;;
20906;SDS011;10613;50.966;5.814;2023-07-20T15:42:42;5.50;;;5.00;;
20906;SDS011;10613;50.966;5.814;2023-07-20T15:46:49;4.00;;;4.00;;
20906;SDS011;10613;50.966;5.814;2023-07-20T15:50:56;4.75;;;4.75;;
20906;SDS011;10613;50.966;5.814;2023-07-20T15:55:03;3.00;;;3.00;;
20906;SDS011;10613;50.966;5.814;2023-07-20T15:59:11;3.25;;;3.25;;
20906;SDS011;10613;50.966;5.814;2023-07-20T16:03:18;2.75;;;2.75;;
20906;SDS011;10613;50.966;5.814;2023-07-20T16:07:25;3.00;;;3.00;;
20906;SDS011;10613;50.966;5.814;2023-07-20T16:11:33;3.75;;;3.75;;
20906;SDS011;10613;50.966;5.814;2023-07-20T16:15:39;4.25;;;4.25;;
20906;SDS011;10613;50.966;5.814;2023-07-20T16:19:46;3.75;;;3.75;;
20906;SDS011;10613;50.966;5.814;2023-07-20T16:23:53;3.00;;;3.00;;
20906;SDS011;10613;50.966;5.814;2023-07-20T16:28:00;3.00;;;3.00;;
20906;SDS011;10613;50.966;5.814;2023-07-20T16:32:07;4.00;;;4.00;;
20906;SDS011;10613;50.966;5.814;2023-07-20T16:36:15;2.75;;;2.75;;
20906;SDS011;10613;50.966;5.814;2023-07-20T16:40:22;3.75;;;3.75;;
20906;SDS011;10613;50.966;5.814;2023-07-20T16:44:30;3.25;;;3.25;;
20906;SDS011;10613;50.966;5.814;2023-07-20T16:48:37;3.50;;;3.00;;
20906;SDS011;10613;50.966;5.814;2023-07-20T16:52:44;3.50;;;3.50;;
20906;SDS011;10613;50.966;5.814;2023-07-20T16:56:51;5.00;;;4.00;;
20906;SDS011;10613;50.966;5.814;2023-07-20T17:00:59;5.00;;;5.00;;
20906;SDS011;10613;50.966;5.814;2023-07-20T17:05:07;3.75;;;3.75;;
20906;SDS011;10613;50.966;5.814;2023-07-20T17:09:17;3.50;;;3.50;;
20906;SDS011;10613;50.966;5.814;2023-07-20T17:13:24;4.25;;;4.00;;
20906;SDS011;10613;50.966;5.814;2023-07-20T17:17:31;4.50;;;4.50;;
20906;SDS011;10613;50.966;5.814;2023-07-20T17:21:38;5.00;;;4.00;;
20906;SDS011;10613;50.966;5.814;2023-07-20T17:25:46;6.25;;;6.25;;
20906;SDS011;10613;50.966;5.814;2023-07-20T17:29:52;4.00;;;4.00;;
20906;SDS011;10613;50.966;5.814;2023-07-20T17:34:01;4.75;;;3.75;;
20906;SDS011;10613;50.966;5.814;2023-07-20T17:38:08;3.00;;;3.00;;
20906;SDS011;10613;50.966;5.814;2023-07-20T17:42:15;3.50;;;3.50;;
20906;SDS011;10613;50.966;5.814;2023-07-20T17:46:22;5.00;;;4.00;;
20906;SDS011;10613;50.966;5.814;2023-07-20T17:50:29;2.75;;;2.75;;
20906;SDS011;10613;50.966;5.814;2023-07-20T17:54:36;3.25;;;3.25;;
20906;SDS011;10613;50.966;5.814;2023-07-20T17:58:43;7.50;;;7.50;;
20906;SDS011;10613;50.966;5.814;2023-07-20T18:02:50;4.00;;;4.00;;
20906;SDS011;10613;50.966;5.814;2023-07-20T18:06:57;4.00;;;4.00;;
20906;SDS011;10613;50.966;5.814;2023-07-20T18:11:05;3.50;;;3.50;;
20906;SDS011;10613;50.966;5.814;2023-07-20T18:15:12;3.00;;;3.00;;
20906;SDS011;10613;50.966;5.814;2023-07-20T18:19:19;3.25;;;3.25;;
20906;SDS011;10613;50.966;5.814;2023-07-20T18:23:25;3.50;;;3.50;;
20906;SDS011;10613;50.966;5.814;2023-07-20T18:27:33;4.25;;;4.25;;
20906;SDS011;10613;50.966;5.814;2023-07-20T18:31:40;3.75;;;3.75;;
20906;SDS011;10613;50.966;5.814;2023-07-20T18:35:47;4.00;;;4.00;;
20906;SDS011;10613;50.966;5.814;2023-07-20T18:39:54;2.75;;;2.75;;
20906;SDS011;10613;50.966;5.814;2023-07-20T18:44:01;5.50;;;5.50;;
20906;SDS011;10613;50.966;5.814;2023-07-20T18:48:08;7.25;;;7.25;;
20906;SDS011;10613;50.966;5.814;2023-07-20T18:52:15;7.25;;;7.25;;
20906;SDS011;10613;50.966;5.814;2023-07-20T18:56:22;8.50;;;8.50;;
20906;SDS011;10613;50.966;5.814;2023-07-20T19:00:29;9.50;;;9.50;;
20906;SDS011;10613;50.966;5.814;2023-07-20T19:04:36;7.50;;;7.25;;
20906;SDS011;10613;50.966;5.814;2023-07-20T19:08:43;7.50;;;7.00;;
20906;SDS011;10613;50.966;5.814;2023-07-20T19:12:50;6.75;;;6.75;;
20906;SDS011;10613;50.966;5.814;2023-07-20T19:16:58;8.00;;;8.00;;
20906;SDS011;10613;50.966;5.814;2023-07-20T19:21:05;10.25;;;8.75;;
20906;SDS011;10613;50.966;5.814;2023-07-20T19:25:18;8.25;;;8.25;;
20906;SDS011;10613;50.966;5.814;2023-07-20T19:29:26;11.00;;;8.00;;
20906;SDS011;10613;50.966;5.814;2023-07-20T19:33:33;3.25;;;3.00;;
20906;SDS011;10613;50.966;5.814;2023-07-20T19:37:40;8.25;;;8.25;;
20906;SDS011;10613;50.966;5.814;2023-07-20T19:41:47;8.25;;;8.25;;
20906;SDS011;10613;50.966;5.814;2023-07-20T19:45:54;7.00;;;7.00;;
20906;SDS011;10613;50.966;5.814;2023-07-20T19:50:01;6.25;;;6.00;;
20906;SDS011;10613;50.966;5.814;2023-07-20T19:54:09;6.25;;;4.50;;
20906;SDS011;10613;50.966;5.814;2023-07-20T19:58:16;6.75;;;6.75;;
20906;SDS011;10613;50.966;5.814;2023-07-20T20:02:24;4.00;;;4.00;;
20906;SDS011;10613;50.966;5.814;2023-07-20T20:06:31;8.00;;;8.00;;
20906;SDS011;10613;50.966;5.814;2023-07-20T20:10:38;8.75;;;8.75;;
20906;SDS011;10613;50.966;5.814;2023-07-20T20:14:45;8.25;;;7.75;;
20906;SDS011;10613;50.966;5.814;2023-07-20T20:18:52;6.50;;;6.50;;
20906;SDS011;10613;50.966;5.814;2023-07-20T20:22:59;7.00;;;6.00;;
20906;SDS011;10613;50.966;5.814;2023-07-20T20:27:06;7.50;;;7.50;;
20906;SDS011;10613;50.966;5.814;2023-07-20T20:31:13;8.00;;;8.00;;
20906;SDS011;10613;50.966;5.814;2023-07-20T20:35:20;7.50;;;6.50;;
20906;SDS011;10613;50.966;5.814;2023-07-20T20:39:27;8.25;;;8.25;;
20906;SDS011;10613;50.966;5.814;2023-07-20T20:43:34;7.50;;;7.50;;
20906;SDS011;10613;50.966;5.814;2023-07-20T20:47:41;5.00;;;5.00;;
20906;SDS011;10613;50.966;5.814;2023-07-20T20:51:48;10.25;;;10.25;;
20906;SDS011;10613;50.966;5.814;2023-07-20T20:55:55;9.00;;;9.00;;
20906;SDS011;10613;50.966;5.814;2023-07-20T21:00:09;8.00;;;8.00;;
20906;SDS011;10613;50.966;5.814;2023-07-20T21:04:16;6.00;;;6.00;;
20906;SDS011;10613;50.966;5.814;2023-07-20T21:08:23;6.75;;;5.50;;
20906;SDS011;10613;50.966;5.814;2023-07-20T21:12:34;9.00;;;9.00;;
20906;SDS011;10613;50.966;5.814;2023-07-20T21:16:41;8.00;;;7.00;;
20906;SDS011;10613;50.966;5.814;2023-07-20T21:20:48;7.50;;;6.00;;
20906;SDS011;10613;50.966;5.814;2023-07-20T21:24:55;6.25;;;6.25;;
20906;SDS011;10613;50.966;5.814;2023-07-20T21:29:02;12.50;;;9.75;;
20906;SDS011;10613;50.966;5.814;2023-07-20T21:33:09;6.00;;;6.00;;
20906;SDS011;10613;50.966;5.814;2023-07-20T21:37:19;6.25;;;6.25;;
20906;SDS011;10613;50.966;5.814;2023-07-20T21:41:40;10.50;;;10.50;;
20906;SDS011;10613;50.966;5.814;2023-07-20T21:45:47;9.00;;;8.25;;
20906;SDS011;10613;50.966;5.814;2023-07-20T21:50:01;6.00;;;6.00;;
20906;SDS011;10613;50.966;5.814;2023-07-20T21:54:08;4.50;;;3.25;;
20906;SDS011;10613;50.966;5.814;2023-07-20T21:58:15;6.00;;;6.00;;
20906;SDS011;10613;50.966;5.814;2023-07-20T22:02:24;7.00;;;6.00;;
20906;SDS011;10613;50.966;5.814;2023-07-20T22:06:31;6.00;;;6.00;;
20906;SDS011;10613;50.966;5.814;2023-07-20T22:10:38;8.00;;;8.00;;
20906;SDS011;10613;50.966;5.814;2023-07-20T22:14:45;9.00;;;9.00;;
20906;SDS011;10613;50.966;5.814;2023-07-20T22:18:52;8.50;;;8.00;;
20906;SDS011;10613;50.966;5.814;2023-07-20T22:22:59;10.00;;;9.75;;
20906;SDS011;10613;50.966;5.814;2023-07-20T22:27:07;6.25;;;6.25;;
20906;SDS011;10613;50.966;5.814;2023-07-20T22:31:16;4.00;;;4.00;;
20906;SDS011;10613;50.966;5.814;2023-07-20T22:35:23;8.00;;;8.00;;
20906;SDS011;10613;50.966;5.814;2023-07-20T22:39:30;8.75;;;8.75;;
20906;SDS011;10613;50.966;5.814;2023-07-20T22:43:38;6.50;;;4.00;;
20906;SDS011;10613;50.966;5.814;2023-07-20T22:47:45;6.75;;;6.75;;
20906;SDS011;10613;50.966;5.814;2023-07-20T22:51:53;7.00;;;7.00;;
20906;SDS011;10613;50.966;5.814;2023-07-20T22:56:00;6.25;;;6.25;;
20906;SDS011;10613;50.966;5.814;2023-07-20T23:00:07;6.50;;;6.50;;
20906;SDS011;10613;50.966;5.814;2023-07-20T23:04:15;12.00;;;10.50;;
20906;SDS011;10613;50.966;5.814;2023-07-20T23:08:22;10.00;;;8.25;;
20906;SDS011;10613;50.966;5.814;2023-07-20T23:12:29;8.00;;;8.00;;
20906;SDS011;10613;50.966;5.814;2023-07-20T23:16:36;11.50;;;10.00;;
20906;SDS011;10613;50.966;5.814;2023-07-20T23:20:43;12.25;;;12.00;;
20906;SDS011;10613;50.966;5.814;2023-07-20T23:24:50;10.00;;;9.75;;
20906;SDS011;10613;50.966;5.814;2023-07-20T23:28:57;9.50;;;8.00;;
20906;SDS011;10613;50.966;5.814;2023-07-20T23:33:04;8.00;;;8.00;;
20906;SDS011;10613;50.966;5.814;2023-07-20T23:37:11;11.75;;;10.25;;
20906;SDS011;10613;50.966;5.814;2023-07-20T23:41:18;9.25;;;9.25;;
20906;SDS011;10613;50.966;5.814;2023-07-20T23:45:25;15.00;;;10.75;;
20906;SDS011;10613;50.966;5.814;2023-07-20T23:49:32;6.00;;;6.00;;
20906;SDS011;10613;50.966;5.814;2023-07-20T23:53:40;8.00;;;8.00;;
20906;SDS011;10613;50.966;5.814;2023-07-20T23:57:47;5.25;;;5.25;;
